Time;durP1;ratioP1;P1;durP2;ratioP2;P2;SDS_P1;SDS_P2;PMS_P1;PMS_P2;Temp;Humidity;BMP_temperature;BMP_pressure;BME280_temperature;BME280_humidity;BME280_pressure;Samples;Min_cycle;Max_cycle;Signal;HPM_P1;HPM_P2
2021/10/18 08:07:09;;;;;;;27.37;19.43;;;10.80;94.90;;;;;;5081384;27;20447;-66
2021/10/18 08:09:35;;;;;;;27.27;22.57;;;10.80;94.80;;;;;;5085895;28;20572;-67
2021/10/18 08:12:01;;;;;;;29.27;21.20;;;10.90;95.30;;;;;;5084391;28;20080;-70
2021/10/18 08:14:27;;;;;;;29.13;21.70;;;10.90;95.60;;;;;;5084359;28;20527;-71
2021/10/18 08:16:53;;;;;;;24.17;21.00;;;11.00;95.90;;;;;;5080490;28;20045;-70
2021/10/18 08:19:19;;;;;;;28.00;22.80;;;11.10;96.10;;;;;;5079540;28;20503;-71
2021/10/18 08:21:45;;;;;;;26.07;22.07;;;11.20;96.20;;;;;;5083259;28;20040;-71
2021/10/18 08:24:11;;;;;;;24.37;21.50;;;11.30;96.20;;;;;;5084463;28;20127;-70
2021/10/18 08:26:36;;;;;;;26.97;22.13;;;11.40;96.20;;;;;;5084646;28;20048;-70
2021/10/18 08:29:02;;;;;;;27.07;20.77;;;11.40;96.00;;;;;;5083754;28;20052;-71
2021/10/18 08:31:28;;;;;;;26.87;21.50;;;11.50;96.00;;;;;;5083605;28;20044;-72
2021/10/18 08:33:54;;;;;;;23.50;20.97;;;11.60;95.80;;;;;;5083713;28;20468;-70
2021/10/18 08:36:19;;;;;;;25.23;21.33;;;11.70;95.60;;;;;;5084232;28;20139;-69
2021/10/18 08:38:48;;;;;;;25.23;21.37;;;11.80;95.50;;;;;;5084482;28;20075;-69
2021/10/18 08:41:23;;;;;;;29.80;22.93;;;11.80;95.20;;;;;;5083601;28;20036;-69
2021/10/18 08:46:33;;;;;;;34.50;22.10;;;12.00;94.90;;;;;;5085009;28;20428;-67
2021/10/18 08:48:59;;;;;;;27.17;21.63;;;12.10;94.80;;;;;;5084385;28;20059;-68
2021/10/18 08:51:26;;;;;;;23.27;20.50;;;12.10;94.50;;;;;;5084428;28;20135;-68
2021/10/18 08:53:52;;;;;;;25.97;22.27;;;12.20;94.60;;;;;;5083701;28;20106;-69
2021/10/18 08:56:18;;;;;;;23.20;20.73;;;12.30;94.50;;;;;;5084831;28;20044;-68
2021/10/18 08:58:44;;;;;;;26.97;22.87;;;12.30;94.40;;;;;;5085275;28;20063;-69
2021/10/18 09:01:09;;;;;;;24.23;21.23;;;12.40;94.30;;;;;;5084470;28;20045;-69
2021/10/18 09:03:36;;;;;;;27.63;22.80;;;12.40;94.10;;;;;;5084706;28;20052;-70
2021/10/18 09:06:10;;;;;;;24.60;21.87;;;12.40;94.10;;;;;;5083711;28;20101;-71
2021/10/18 09:08:42;;;;;;;27.07;22.37;;;12.50;94.30;;;;;;5085347;28;20052;-70
2021/10/18 09:11:15;;;;;;;26.77;23.25;;;12.50;93.90;;;;;;5082813;28;20040;-71
2021/10/18 09:13:53;;;;;;;30.17;23.23;;;12.60;93.70;;;;;;5084053;28;20070;-71
2021/10/18 09:16:30;;;;;;;26.77;23.40;;;12.60;93.50;;;;;;5081391;28;20048;-71
2021/10/18 09:19:11;;;;;;;27.83;23.47;;;12.60;93.50;;;;;;5068011;28;20402;-76
2021/10/18 09:21:41;;;;;;;28.25;21.98;;;12.60;93.40;;;;;;5071668;28;20087;-75
2021/10/18 09:24:09;;;;;;;26.27;22.30;;;12.60;93.50;;;;;;5071083;28;20053;-71
2021/10/18 09:26:36;;;;;;;26.80;23.17;;;12.70;93.30;;;;;;5071624;28;20135;-68
2021/10/18 09:29:03;;;;;;;27.63;23.67;;;12.70;93.20;;;;;;5071316;28;20040;-69
2021/10/18 09:31:29;;;;;;;29.70;23.60;;;12.80;93.20;;;;;;5070777;28;20045;-69
2021/10/18 09:34:11;;;;;;;35.33;25.00;;;12.80;93.10;;;;;;5071092;28;20484;-70
2021/10/18 09:36:37;;;;;;;35.93;24.60;;;12.90;92.90;;;;;;5071276;28;20052;-69
2021/10/18 09:39:14;;;;;;;26.17;23.37;;;12.90;92.90;;;;;;5070114;28;20381;-68
2021/10/18 09:41:54;;;;;;;28.43;24.07;;;13.00;92.70;;;;;;5070862;28;20045;-70
2021/10/18 09:44:29;;;;;;;25.00;22.40;;;13.00;92.50;;;;;;5069681;28;20036;-69
2021/10/18 09:47:05;;;;;;;26.57;23.73;;;13.10;92.40;;;;;;5068646;28;20124;-69
2021/10/18 13:10:07;;;;;;;20.13;14.47;;;14.60;87.20;;;;;;5100096;27;20395;-74
2021/10/18 13:12:33;;;;;;;22.57;15.67;;;14.60;90.00;;;;;;5106823;28;20051;-79
2021/10/18 13:15:00;;;;;;;18.93;15.50;;;14.60;90.10;;;;;;5107426;28;20036;-76
2021/10/18 13:17:26;;;;;;;17.80;14.80;;;14.60;90.10;;;;;;5105443;28;20066;-75
2021/10/18 13:19:53;;;;;;;19.07;15.13;;;14.60;90.10;;;;;;5109743;28;20125;-75
2021/10/18 13:22:19;;;;;;;17.27;15.37;;;14.70;90.20;;;;;;5112228;28;20055;-76
2021/10/18 13:24:45;;;;;;;21.27;16.00;;;14.80;90.10;;;;;;5112790;28;20233;-75
2021/10/18 13:27:11;;;;;;;18.93;15.33;;;14.80;90.10;;;;;;5112980;28;20509;-75
2021/10/18 13:29:37;;;;;;;17.50;14.03;;;14.80;89.40;;;;;;5113375;28;20130;-72
2021/10/18 13:32:04;;;;;;;16.93;14.27;;;14.90;89.20;;;;;;5111576;28;20123;-77
2021/10/18 13:34:30;;;;;;;18.07;15.53;;;14.90;88.90;;;;;;5113345;28;20507;-80
2021/10/18 13:36:58;;;;;;;17.13;14.43;;;14.90;88.70;;;;;;5104108;28;20479;-86
2021/10/18 13:39:23;;;;;;;15.87;13.83;;;14.90;89.70;;;;;;5104883;28;20051;-78
2021/10/18 13:41:49;;;;;;;17.70;14.53;;;15.00;88.80;;;;;;5106577;28;20124;-79
2021/10/18 13:44:15;;;;;;;16.67;13.93;;;15.00;88.90;;;;;;5105146;28;20404;-77
2021/10/18 13:46:41;;;;;;;18.23;14.40;;;15.10;89.80;;;;;;5105183;28;20052;-76
2021/10/18 13:49:06;;;;;;;18.67;15.43;;;15.20;88.80;;;;;;5106089;28;20079;-77
2021/10/18 13:51:32;;;;;;;18.93;14.33;;;15.30;88.80;;;;;;5105436;28;20098;-77
2021/10/18 13:53:59;;;;;;;15.73;13.47;;;15.40;88.00;;;;;;5105595;28;20373;-78
2021/10/18 13:56:25;;;;;;;16.10;13.73;;;15.50;87.30;;;;;;5101439;28;20070;-77
2021/10/18 13:58:53;;;;;;;15.70;12.47;;;15.50;86.80;;;;;;5102610;28;20055;-78
2021/10/18 14:01:19;;;;;;;16.23;12.83;;;15.50;86.30;;;;;;5105580;28;20048;-76
2021/10/18 14:03:44;;;;;;;15.27;13.07;;;15.50;86.00;;;;;;5104301;28;20381;-78
2021/10/18 14:06:12;;;;;;;18.67;11.83;;;15.50;86.10;;;;;;5101846;28;20056;-74
2021/10/18 14:08:38;;;;;;;17.97;12.63;;;15.50;85.90;;;;;;5105592;28;20087;-78
2021/10/18 14:11:06;;;;;;;15.67;12.90;;;15.50;85.60;;;;;;5106008;28;20108;-77
2021/10/18 14:13:35;;;;;;;15.57;12.43;;;15.40;85.50;;;;;;5104873;28;20448;-76
2021/10/18 14:16:01;;;;;;;17.73;12.03;;;15.30;85.10;;;;;;5103730;28;20048;-77
2021/10/18 14:18:26;;;;;;;14.13;12.23;;;15.30;85.40;;;;;;5103779;28;20048;-76
2021/10/18 14:20:52;;;;;;;17.07;12.23;;;15.30;85.70;;;;;;5092625;28;20040;-78
2021/10/18 14:23:20;;;;;;;18.00;12.70;;;15.20;85.70;;;;;;5091664;28;20503;-75
2021/10/18 14:25:46;;;;;;;14.30;11.60;;;15.30;85.70;;;;;;5090296;28;20496;-75
2021/10/18 14:28:12;;;;;;;16.47;12.33;;;15.20;85.70;;;;;;5090878;28;20063;-75
2021/10/18 14:30:38;;;;;;;15.87;12.63;;;15.20;85.70;;;;;;5091423;28;20043;-75
2021/10/18 14:33:03;;;;;;;18.07;13.33;;;15.20;85.60;;;;;;5090073;28;20188;-75
2021/10/18 14:35:29;;;;;;;17.97;13.10;;;15.20;85.80;;;;;;5090756;28;20140;-75
